Time;durP1;ratioP1;P1;durP2;ratioP2;P2;SDS_P1;SDS_P2;PMS_P1;PMS_P2;Temp;Humidity;BMP_temperature;BMP_pressure;BME280_temperature;BME280_humidity;BME280_pressure;Samples;Min_cycle;Max_cycle;Signal;HPM_P1;HPM_P2
2023/10/02 00:05:07;;;;;;;26.00;15.25;;;;;;;17.91;87.79;101887.63;5068313;28;20062;-59
2023/10/02 00:07:33;;;;;;;22.40;14.35;;;;;;;17.83;88.21;101899.00;5081218;28;20036;-59
2023/10/02 00:10:00;;;;;;;21.35;14.43;;;;;;;17.75;88.54;101892.47;5067735;28;20431;-59
2023/10/02 00:12:28;;;;;;;20.63;14.23;;;;;;;17.80;88.43;101887.63;5070471;28;20028;-59
2023/10/02 00:14:55;;;;;;;25.88;15.07;;;;;;;17.66;89.15;101894.03;5070118;28;20045;-59
2023/10/02 00:17:22;;;;;;;21.95;14.02;;;;;;;17.64;89.09;101894.13;5072111;28;20023;-59
2023/10/02 00:19:52;;;;;;;21.08;13.95;;;;;;;17.57;89.54;101892.03;5069854;28;20050;-59
2023/10/02 00:22:37;;;;;;;21.30;14.13;;;;;;;17.66;89.27;101894.03;5070034;28;20531;-59
2023/10/02 00:25:08;;;;;;;22.10;14.18;;;;;;;17.64;88.93;101882.53;5068455;28;20048;-59
2023/10/02 00:27:37;;;;;;;25.08;15.20;;;;;;;17.61;89.14;101888.13;5070443;28;20664;-59
2023/10/02 00:30:07;;;;;;;20.85;14.35;;;;;;;17.53;89.75;101890.53;5070268;28;20017;-59
2023/10/02 00:32:34;;;;;;;22.70;15.05;;;;;;;17.52;89.70;101886.16;5074525;28;20028;-59
2023/10/02 00:35:02;;;;;;;22.30;13.93;;;;;;;17.56;89.48;101885.81;5076913;28;20035;-59
2023/10/02 00:37:44;;;;;;;22.35;14.25;;;;;;;17.53;89.70;101886.03;5071747;28;20459;-59
2023/10/02 00:40:27;;;;;;;23.88;14.52;;;;;;;17.52;89.80;101887.00;5071320;28;20037;-59
2023/10/02 00:45:49;;;;;;;20.77;13.82;;;;;;;17.48;89.89;101882.84;5073361;28;20494;-59
2023/10/02 00:48:25;;;;;;;18.73;13.88;;;;;;;17.40;90.40;101880.72;5072653;28;20033;-59
2023/10/02 00:50:54;;;;;;;22.40;15.38;;;;;;;17.46;90.05;101879.41;5079391;28;20059;-59
2023/10/02 00:53:37;;;;;;;21.55;13.65;;;;;;;17.28;90.81;101881.66;5075322;28;20545;-59
2023/10/02 00:56:19;;;;;;;22.30;14.18;;;;;;;17.27;91.06;101874.56;5070162;28;20814;-59
2023/10/02 00:58:48;;;;;;;20.08;13.68;;;;;;;17.22;91.01;101876.72;5071626;28;20031;-60
2023/10/02 01:01:14;;;;;;;20.80;14.32;;;;;;;17.23;91.12;101873.06;5056173;28;20121;-59
2023/10/02 01:04:07;;;;;;;21.63;14.27;;;;;;;17.16;91.44;101872.66;5073261;28;20058;-59
2023/10/02 01:06:25;;;;;;;24.00;14.48;;;;;;;17.20;91.41;101873.28;5072251;28;20469;-59
2023/10/02 01:08:51;;;;;;;18.83;13.57;;;;;;;17.11;91.71;101871.28;5054472;28;20036;-59
2023/10/02 01:11:16;;;;;;;22.20;14.60;;;;;;;17.11;91.88;101871.28;5071280;28;20082;-59
2023/10/02 01:13:46;;;;;;;23.00;15.27;;;;;;;17.10;92.20;101870.44;5072194;28;20056;-59
2023/10/02 01:16:13;;;;;;;21.67;13.88;;;;;;;17.02;92.18;101864.75;5073277;28;20055;-59
2023/10/02 01:18:39;;;;;;;22.65;14.25;;;;;;;16.99;92.63;101871.22;5073505;28;20469;-59
2023/10/02 01:21:12;;;;;;;21.17;14.05;;;;;;;17.03;92.45;101866.50;5071851;28;20028;-59
2023/10/02 01:23:44;;;;;;;25.40;13.55;;;;;;;17.07;92.50;101862.59;5072124;28;20633;-59
2023/10/02 01:26:10;;;;;;;24.27;14.23;;;;;;;16.94;92.74;101868.03;5074057;28;20047;-59
2023/10/02 01:28:52;;;;;;;26.00;14.38;;;;;;;16.94;92.92;101864.47;5071773;28;20028;-59
2023/10/02 01:31:36;;;;;;;25.02;15.15;;;;;;;16.83;93.41;101859.91;5073481;28;20059;-59
2023/10/02 01:34:02;;;;;;;26.17;15.05;;;;;;;16.96;92.83;101865.22;5072424;28;20074;-59
2023/10/02 01:36:32;;;;;;;24.27;14.55;;;;;;;16.91;93.41;101862.00;5073008;28;20095;-59
2023/10/02 01:39:15;;;;;;;22.25;15.10;;;;;;;16.92;93.50;101853.84;5072654;28;20112;-59
2023/10/02 01:41:41;;;;;;;24.17;14.48;;;;;;;17.02;92.97;101857.56;5071469;28;20040;-59
2023/10/02 01:44:11;;;;;;;23.60;14.02;;;;;;;17.02;92.88;101860.25;5086893;28;20036;-59
2023/10/02 01:46:49;;;;;;;23.90;14.18;;;;;;;16.93;92.84;101860.94;5072732;28;20492;-59
2023/10/02 01:49:27;;;;;;;18.77;13.50;;;;;;;16.74;93.42;101849.81;5070998;28;20032;-59
2023/10/02 01:52:07;;;;;;;21.25;14.85;;;;;;;16.94;93.35;101859.09;5072659;28;20031;-59
2023/10/02 01:54:40;;;;;;;22.58;14.02;;;;;;;16.86;93.68;101858.81;5071598;28;20387;-59
2023/10/02 01:57:08;;;;;;;22.70;15.20;;;;;;;16.87;93.84;101857.84;5069367;28;20024;-59
2023/10/02 01:59:49;;;;;;;22.58;14.50;;;;;;;16.91;93.77;101848.56;5072648;28;20020;-59
2023/10/02 02:02:14;;;;;;;21.65;14.15;;;;;;;16.90;93.50;101855.78;5071633;28;20043;-59
2023/10/02 02:04:43;;;;;;;21.88;14.85;;;;;;;16.89;93.24;101843.31;5072591;28;20031;-59
2023/10/02 02:07:08;;;;;;;24.98;15.25;;;;;;;16.77;94.15;101853.16;5072838;28;20458;-59
2023/10/02 02:09:42;;;;;;;23.25;15.15;;;;;;;16.76;94.27;101853.25;5070295;28;20053;-59
2023/10/02 02:12:10;;;;;;;25.50;15.43;;;;;;;16.76;94.01;101846.03;5071523;28;20032;-59
2023/10/02 02:14:56;;;;;;;21.65;13.52;;;;;;;16.75;94.37;101851.50;5068898;28;20028;-59
2023/10/02 02:17:22;;;;;;;26.13;15.55;;;;;;;16.83;93.94;101854.53;5072619;28;20059;-59
2023/10/02 02:19:51;;;;;;;24.85;14.55;;;;;;;16.80;94.03;101860.13;5072734;28;20017;-59
2023/10/02 02:22:25;;;;;;;22.00;15.18;;;;;;;16.74;93.98;101858.72;5070934;28;20025;-59
2023/10/02 02:24:51;;;;;;;22.80;14.73;;;;;;;16.54;94.25;101841.34;5071872;28;20466;-59
2023/10/02 02:27:19;;;;;;;22.67;14.60;;;;;;;16.71;94.35;101852.72;5053428;28;20058;-59
2023/10/02 02:29:49;;;;;;;26.67;14.88;;;;;;;16.70;94.40;101854.50;5071236;28;20036;-59
2023/10/02 02:32:36;;;;;;;20.88;14.63;;;;;;;16.45;95.29;101844.69;5071560;28;20368;-59
2023/10/02 02:35:06;;;;;;;21.48;15.60;;;;;;;16.59;95.14;101851.78;5070693;28;20028;-59
2023/10/02 02:37:34;;;;;;;22.73;14.57;;;;;;;16.54;95.40;101854.78;5070802;28;20693;-59
2023/10/02 02:42:46;;;;;;;24.58;15.23;;;;;;;16.50;95.42;101842.56;5072004;28;20090;-59
2023/10/02 02:45:31;;;;;;;22.70;14.85;;;;;;;16.51;95.76;101838.03;5071426;28;20032;-59
2023/10/02 02:48:07;;;;;;;22.73;14.70;;;;;;;16.41;95.76;101829.75;5071058;28;20032;-59
2023/10/02 02:50:40;;;;;;;20.38;14.43;;;;;;;16.45;95.91;101833.97;5071235;28;20021;-59
2023/10/02 02:53:21;;;;;;;23.40;14.98;;;;;;;16.51;95.69;101838.03;5071794;28;20028;-59
2023/10/02 02:56:10;;;;;;;19.48;13.88;;;;;;;16.49;95.85;101835.44;5069734;28;21052;-59
2023/10/02 02:58:38;;;;;;;21.10;13.32;;;;;;;16.45;95.64;101831.28;5073094;28;20024;-59
2023/10/02 03:01:06;;;;;;;22.80;14.52;;;;;;;16.43;95.85;101835.88;5070803;28;20236;-59
2023/10/02 03:03:41;;;;;;;23.02;15.07;;;;;;;16.40;95.92;101837.94;5072155;28;20017;-59
2023/10/02 03:06:14;;;;;;;25.88;14.32;;;;;;;16.49;95.66;101843.50;5069904;28;20025;-59
2023/10/02 03:08:41;;;;;;;22.75;15.02;;;;;;;16.40;95.78;101832.56;5075062;28;20039;-59
2023/10/02 03:11:07;;;;;;;24.65;15.65;;;;;;;16.37;96.17;101827.44;5067967;28;20495;-59
2023/10/02 03:13:41;;;;;;;22.92;14.57;;;;;;;16.29;96.47;101827.97;5069763;28;20055;-59
2023/10/02 03:16:17;;;;;;;23.13;14.27;;;;;;;16.34;96.53;101828.50;5068875;28;20508;-59
2023/10/02 03:18:48;;;;;;;25.08;14.88;;;;;;;16.37;95.76;101814.84;5070719;28;20048;-59
2023/10/02 03:21:23;;;;;;;21.98;13.80;;;;;;;16.32;96.11;101822.38;5070782;28;20551;-61
2023/10/02 03:23:58;;;;;;;24.52;15.05;;;;;;;16.32;96.22;101803.56;5068593;28;20031;-59
2023/10/02 03:26:30;;;;;;;23.70;14.80;;;;;;;16.27;96.18;101798.56;5068823;28;20549;-59
2023/10/02 03:29:03;;;;;;;24.05;14.55;;;;;;;16.24;96.51;101808.66;5101297;28;20539;-59
2023/10/02 03:31:43;;;;;;;24.52;14.98;;;;;;;16.28;96.16;101807.47;5069591;28;20051;-59
2023/10/02 03:34:30;;;;;;;22.98;15.30;;;;;;;16.35;95.68;101812.28;5084499;28;20032;-59
2023/10/02 03:42:25;;;;;;;23.30;15.20;;;;;;;16.22;96.63;101813.28;5072165;28;20086;-59
2023/10/02 03:44:56;;;;;;;23.85;14.25;;;;;;;16.30;96.15;101817.13;5070144;28;20024;-59
2023/10/02 03:47:23;;;;;;;27.25;14.65;;;;;;;16.31;96.04;101818.84;5103908;28;20028;-59
2023/10/02 03:49:50;;;;;;;24.15;14.40;;;;;;;16.31;95.88;101812.63;5071841;28;20020;-59
2023/10/02 03:52:19;;;;;;;25.05;14.60;;;;;;;16.20;96.18;101809.84;5071271;28;20032;-59
2023/10/02 03:54:45;;;;;;;25.08;15.57;;;;;;;16.12;96.42;101818.44;5067342;28;20024;-59
2023/10/02 03:57:37;;;;;;;24.80;15.60;;;;;;;16.26;96.12;101814.75;5069534;28;20074;-59
2023/10/02 04:00:09;;;;;;;21.88;14.73;;;;;;;16.26;96.17;101817.44;5070084;28;20063;-59
2023/10/02 04:02:36;;;;;;;23.80;15.40;;;;;;;16.23;96.39;101818.50;5070086;28;20052;-59
2023/10/02 04:05:05;;;;;;;21.80;15.23;;;;;;;16.23;96.37;101814.97;5070033;28;20036;-59
2023/10/02 04:07:33;;;;;;;22.40;15.05;;;;;;;16.34;95.54;101812.38;5067829;28;20016;-59
2023/10/02 04:09:59;;;;;;;23.67;14.75;;;;;;;16.32;95.46;101815.19;5069925;28;20377;-59
2023/10/02 04:12:26;;;;;;;23.35;15.50;;;;;;;16.31;95.65;101823.34;5069108;28;20077;-59
2023/10/02 04:14:54;;;;;;;23.65;15.05;;;;;;;16.28;96.06;101815.50;5070085;28;20035;-59
2023/10/02 04:22:27;;;;;;;21.52;14.00;;;;;;;16.18;95.92;101809.97;5070408;28;20035;-59
2023/10/02 04:24:58;;;;;;;23.50;16.00;;;;;;;16.23;95.74;101817.66;5068054;28;20036;-59
2023/10/02 04:32:51;;;;;;;22.42;15.27;;;;;;;16.07;96.05;101810.72;5072166;28;20159;-59
2023/10/02 04:38:09;;;;;;;25.02;14.57;;;;;;;16.13;96.22;101810.28;5067220;28;20471;-60
2023/10/02 04:40:55;;;;;;;25.63;14.93;;;;;;;16.06;96.88;101814.38;5068593;28;20151;-59
2023/10/02 04:45:47;;;;;;;23.55;14.57;;;;;;;16.07;96.75;101807.19;5071721;28;20024;-59
2023/10/02 04:48:14;;;;;;;22.77;14.77;;;;;;;16.07;96.93;101812.53;5068176;28;20475;-59
2023/10/02 04:50:46;;;;;;;24.58;14.90;;;;;;;15.95;97.14;101816.09;5069421;28;20119;-59
2023/10/02 04:55:43;;;;;;;26.27;15.68;;;;;;;15.99;96.88;101806.84;5068072;28;20028;-59
2023/10/02 04:58:14;;;;;;;20.75;14.38;;;;;;;15.98;96.70;101810.50;5068580;28;20545;-59
2023/10/02 05:03:35;;;;;;;22.77;15.50;;;;;;;15.88;97.31;101803.13;5068591;28;20037;-59
2023/10/02 05:06:03;;;;;;;23.02;15.02;;;;;;;15.89;96.86;101809.34;5073300;28;20020;-59
2023/10/02 05:09:19;;;;;;;25.05;16.30;;;;;;;15.87;97.37;101808.56;5071470;28;20035;-59
2023/10/02 05:11:28;;;;;;;23.65;15.57;;;;;;;15.71;97.42;101795.38;5069113;28;20069;-59
2023/10/02 05:16:29;;;;;;;21.83;15.55;;;;;;;15.84;97.29;101803.41;5068488;28;20086;-59
2023/10/02 05:18:57;;;;;;;26.38;15.07;;;;;;;15.83;97.29;101813.28;5072063;28;20107;-59
2023/10/02 05:22:13;;;;;;;23.30;15.07;;;;;;;15.76;97.60;101816.50;5074500;28;20107;-59
2023/10/02 05:24:11;;;;;;;22.15;14.75;;;;;;;15.62;97.80;101809.41;5065619;28;20043;-59
2023/10/02 05:26:41;;;;;;;22.98;14.82;;;;;;;15.73;97.67;101814.88;5073695;28;20028;-59
2023/10/02 05:29:17;;;;;;;22.80;15.80;;;;;;;15.59;98.06;101806.94;5071305;28;20027;-59
2023/10/02 05:31:47;;;;;;;22.20;15.65;;;;;;;15.57;98.68;101817.75;5072954;28;20470;-59
2023/10/02 05:34:23;;;;;;;22.40;15.40;;;;;;;15.63;98.53;101819.16;5074436;28;20028;-59
2023/10/02 05:42:08;;;;;;;25.38;15.82;;;;;;;15.56;98.73;101808.00;5072712;28;20063;-59
2023/10/02 05:44:36;;;;;;;27.70;16.63;;;;;;;15.51;99.53;101812.81;5074102;28;20103;-59
2023/10/02 05:47:05;;;;;;;27.90;16.55;;;;;;;15.64;98.55;101812.81;5072989;28;20028;-59
2023/10/02 05:49:31;;;;;;;25.13;15.88;;;;;;;15.60;98.58;101814.84;5084883;28;20041;-59
2023/10/02 05:52:00;;;;;;;25.02;16.08;;;;;;;15.58;98.73;101815.91;5071929;28;20044;-59
2023/10/02 05:54:35;;;;;;;23.67;15.95;;;;;;;15.56;98.22;101825.88;5071752;28;20025;-60
2023/10/02 05:57:14;;;;;;;23.80;15.50;;;;;;;15.65;98.40;101839.53;5069825;28;20032;-59
2023/10/02 05:59:45;;;;;;;23.80;15.68;;;;;;;15.67;98.47;101831.38;5071386;28;20031;-59
2023/10/02 06:02:19;;;;;;;23.35;15.10;;;;;;;15.55;98.56;101835.75;5070874;28;20501;-59
2023/10/02 06:04:52;;;;;;;23.65;15.65;;;;;;;15.58;98.80;101837.38;5072585;28;20479;-59
2023/10/02 06:07:46;;;;;;;25.35;15.48;;;;;;;15.57;99.40;101833.84;5069715;28;20050;-59
2023/10/02 06:10:27;;;;;;;26.15;16.13;;;;;;;15.57;99.66;101836.53;5067215;28;20064;-59
2023/10/02 06:13:05;;;;;;;32.35;17.38;;;;;;;15.67;99.00;101832.25;5069178;28;20044;-59
2023/10/02 06:15:48;;;;;;;29.90;16.00;;;;;;;15.62;99.75;101831.72;5069823;28;20055;-59
2023/10/02 06:18:29;;;;;;;25.55;15.32;;;;;;;15.75;98.67;101838.94;5071240;28;20103;-59
2023/10/02 06:21:00;;;;;;;24.85;16.58;;;;;;;15.74;98.89;101837.22;5071822;28;20455;-59
2023/10/02 06:23:29;;;;;;;27.25;17.17;;;;;;;15.75;98.75;101845.16;5071211;28;20085;-59
2023/10/02 06:25:58;;;;;;;28.33;16.83;;;;;;;15.81;98.54;101842.03;5071037;28;20048;-59
2023/10/02 06:28:27;;;;;;;27.00;16.60;;;;;;;15.72;99.43;101845.38;5068671;28;20035;-59
2023/10/02 06:30:54;;;;;;;27.02;18.17;;;;;;;15.82;99.35;101848.25;5071109;28;20028;-59
2023/10/02 06:33:23;;;;;;;26.20;16.63;;;;;;;15.78;99.74;101838.72;5071851;28;20478;-59
2023/10/02 06:36:00;;;;;;;29.70;18.80;;;;;;;15.86;98.83;101839.91;5073034;28;20452;-59
2023/10/02 06:38:30;;;;;;;26.48;18.35;;;;;;;15.91;98.39;101839.56;5068711;28;20483;-59
2023/10/02 06:40:56;;;;;;;26.48;18.50;;;;;;;15.94;98.21;101835.81;5070735;28;20032;-59
2023/10/02 06:43:28;;;;;;;27.92;18.55;;;;;;;16.01;98.19;101846.03;5106328;27;20025;-59
2023/10/02 06:46:06;;;;;;;29.33;18.48;;;;;;;16.05;97.59;101849.34;5068076;28;20063;-59
2023/10/02 06:48:34;;;;;;;30.52;18.77;;;;;;;16.11;97.76;101844.41;5069113;28;20025;-59
2023/10/02 06:51:01;;;;;;;27.13;16.85;;;;;;;16.20;98.22;101853.63;5071731;28;20036;-59
2023/10/02 06:53:26;;;;;;;24.73;17.10;;;;;;;16.19;97.83;101845.69;5069404;28;20021;-59
2023/10/02 06:55:58;;;;;;;28.35;17.55;;;;;;;16.22;96.87;101845.47;5068692;28;20399;-60
2023/10/02 06:58:25;;;;;;;26.85;17.38;;;;;;;16.17;98.18;101853.00;5070670;28;20028;-59
2023/10/02 07:01:01;;;;;;;27.63;16.83;;;;;;;16.25;97.52;101838.06;5071176;28;20103;-59
2023/10/02 07:03:27;;;;;;;25.23;17.27;;;;;;;16.25;98.68;101845.28;5067388;28;20017;-59
2023/10/02 07:05:52;;;;;;;27.25;17.17;;;;;;;16.26;98.50;101837.09;5069565;28;20390;-59
2023/10/02 07:08:18;;;;;;;28.08;17.40;;;;;;;16.27;99.11;101828.09;5072533;28;20043;-59
2023/10/02 07:10:44;;;;;;;24.80;17.08;;;;;;;16.39;97.37;101830.88;5069093;28;20037;-59
2023/10/02 07:13:19;;;;;;;29.77;18.50;;;;;;;16.47;96.92;101839.19;5070692;28;20399;-59
2023/10/02 07:15:48;;;;;;;23.55;16.80;;;;;;;16.53;96.79;101836.97;5069101;28;20024;-59
2023/10/02 07:18:14;;;;;;;27.60;17.77;;;;;;;16.63;96.11;101828.22;5071682;28;20024;-59
2023/10/02 07:20:43;;;;;;;24.83;16.98;;;;;;;16.71;96.15;101833.91;5078655;28;20025;-59
2023/10/02 07:23:19;;;;;;;32.92;16.92;;;;;;;16.81;95.73;101832.28;5070538;28;20032;-59
2023/10/02 07:25:52;;;;;;;27.45;16.98;;;;;;;16.90;95.12;101846.88;5067048;28;20027;-59
2023/10/02 07:28:21;;;;;;;30.35;17.90;;;;;;;17.01;95.13;101836.19;5067124;28;20090;-59
2023/10/02 07:30:50;;;;;;;27.20;17.27;;;;;;;17.09;94.59;101835.59;5103406;28;20031;-59
2023/10/02 07:33:19;;;;;;;29.25;17.42;;;;;;;17.18;94.76;101827.72;5076239;28;20024;-59
2023/10/02 07:35:52;;;;;;;27.10;17.23;;;;;;;17.23;93.67;101833.56;5072093;28;20035;-59
2023/10/02 07:38:22;;;;;;;29.35;17.73;;;;;;;17.25;92.63;101844.22;5104644;28;20024;-59
2023/10/02 07:40:49;;;;;;;26.55;17.10;;;;;;;17.32;92.17;101841.94;5069918;28;20062;-59
2023/10/02 07:43:18;;;;;;;28.45;18.55;;;;;;;17.38;91.95;101845.03;5069063;28;20151;-59
2023/10/02 07:46:01;;;;;;;29.30;16.33;;;;;;;17.41;92.41;101849.28;5104192;28;20391;-59
2023/10/02 07:48:35;;;;;;;29.65;18.17;;;;;;;17.46;93.22;101849.81;5069519;28;20020;-59
2023/10/02 07:51:06;;;;;;;26.63;16.83;;;;;;;17.42;92.38;101837.59;5070473;28;20028;-59
2023/10/02 07:53:40;;;;;;;26.42;17.05;;;;;;;17.49;92.22;101839.66;5098074;28;20447;-59
2023/10/02 07:56:07;;;;;;;27.80;17.83;;;;;;;17.48;92.64;101835.28;5069129;28;20096;-59
2023/10/02 07:58:35;;;;;;;26.77;18.38;;;;;;;17.51;92.67;101833.34;5080876;28;20063;-59
2023/10/02 08:01:06;;;;;;;28.05;17.90;;;;;;;17.54;92.53;101836.63;5074611;28;20069;-59
2023/10/02 08:03:34;;;;;;;29.08;17.13;;;;;;;17.46;94.58;101833.66;5083932;28;20115;-59
2023/10/02 08:06:21;;;;;;;26.08;17.02;;;;;;;17.56;93.16;101841.88;5072178;28;20024;-59
2023/10/02 08:11:33;;;;;;;25.10;17.83;;;;;;;17.55;94.47;101845.56;5069282;28;20561;-59
2023/10/02 08:13:58;;;;;;;26.27;17.40;;;;;;;17.59;93.31;101847.03;5069953;28;20020;-59
2023/10/02 08:16:26;;;;;;;29.20;18.20;;;;;;;17.66;92.27;101841.06;5049762;28;20025;-59
2023/10/02 08:18:58;;;;;;;30.23;17.55;;;;;;;17.76;92.91;101841.22;5066088;28;20031;-59
2023/10/02 08:21:46;;;;;;;28.10;17.25;;;;;;;17.91;93.99;101852.66;5065551;28;20032;-59
2023/10/02 08:24:13;;;;;;;30.15;17.55;;;;;;;18.08;91.45;101848.63;5070579;28;20033;-59
2023/10/02 08:26:43;;;;;;;30.33;18.02;;;;;;;18.23;90.51;101854.66;5086634;28;20027;-59
2023/10/02 08:29:13;;;;;;;32.40;18.88;;;;;;;18.37;89.98;101851.72;5071230;28;20036;-59
2023/10/02 08:31:43;;;;;;;31.40;17.65;;;;;;;18.50;90.83;101855.16;5072061;28;20028;-59
2023/10/02 08:34:12;;;;;;;28.40;18.30;;;;;;;18.63;89.41;101849.63;5078836;28;20438;-59
2023/10/02 08:36:38;;;;;;;27.17;18.02;;;;;;;18.70;88.70;101845.44;5075319;28;20029;-59
2023/10/02 08:39:04;;;;;;;30.60;17.98;;;;;;;18.78;86.53;101844.84;5071632;28;20070;-59
2023/10/02 08:41:30;;;;;;;27.10;18.60;;;;;;;18.90;86.56;101845.69;5108805;28;20033;-59
2023/10/02 08:43:55;;;;;;;26.17;17.10;;;;;;;19.03;86.87;101844.53;5067290;28;20028;-59
2023/10/02 08:46:24;;;;;;;28.70;17.92;;;;;;;19.14;86.51;101851.72;5080378;28;20020;-59
2023/10/02 08:48:54;;;;;;;27.70;17.45;;;;;;;19.35;85.07;101851.75;5068005;28;21181;-60
2023/10/02 08:51:29;;;;;;;30.27;17.08;;;;;;;19.43;86.53;101851.13;5069563;28;20035;-59
2023/10/02 08:53:56;;;;;;;28.10;17.63;;;;;;;19.58;84.40;101857.06;5074719;28;20059;-59
2023/10/02 08:56:21;;;;;;;28.40;17.02;;;;;;;19.51;83.26;101845.94;5089937;28;20463;-59
2023/10/02 08:59:16;;;;;;;26.67;16.83;;;;;;;19.56;84.31;101842.81;5081673;28;20025;-59
2023/10/02 09:01:37;;;;;;;;;;;;;;;19.68;85.83;101839.13;5073321;28;20032;-59
2023/10/02 09:06:58;;;;;;;28.98;17.73;;;;;;;19.57;84.99;101825.66;5074628;28;20505;-59
2023/10/02 09:09:35;;;;;;;27.70;17.30;;;;;;;19.64;85.84;101832.25;5088028;28;20032;-59
2023/10/02 09:12:03;;;;;;;26.42;17.45;;;;;;;19.63;84.60;101834.09;5072489;28;20029;-59
2023/10/02 09:17:07;;;;;;;28.58;17.63;;;;;;;19.60;85.99;101841.59;5073135;28;20043;-59
2023/10/02 09:19:37;;;;;;;26.30;17.38;;;;;;;19.68;86.33;101844.53;5072267;28;20025;-60
2023/10/02 09:22:07;;;;;;;29.80;17.90;;;;;;;19.69;85.41;101841.69;5087406;28;20574;-60
2023/10/02 09:24:36;;;;;;;29.05;17.00;;;;;;;19.66;86.52;101841.94;5073185;28;20368;-59
2023/10/02 09:27:25;;;;;;;28.55;16.52;;;;;;;19.69;85.50;101839.00;5073507;28;20020;-60
2023/10/02 09:32:47;;;;;;;26.48;16.52;;;;;;;19.72;86.06;101836.03;5073953;28;19947;-59
2023/10/02 09:35:21;;;;;;;30.73;17.38;;;;;;;19.73;87.22;101840.44;5074035;28;20028;-59
2023/10/02 09:37:55;;;;;;;28.70;17.67;;;;;;;19.64;90.36;101841.19;5073841;28;20109;-59
2023/10/02 09:40:28;;;;;;;25.98;16.83;;;;;;;19.55;91.73;101841.97;5073420;28;20108;-59
2023/10/02 09:43:02;;;;;;;25.67;16.15;;;;;;;19.51;91.01;101840.53;5072776;28;20100;-59
2023/10/02 09:45:37;;;;;;;27.38;17.33;;;;;;;19.42;90.70;101834.09;5073950;28;20029;-59
2023/10/02 09:48:46;;;;;;;26.45;17.70;;;;;;;19.46;89.68;101840.06;5073675;28;20024;-59
2023/10/02 09:50:54;;;;;;;28.25;18.30;;;;;;;19.63;88.02;101838.63;5073196;28;20036;-59
2023/10/02 09:53:24;;;;;;;27.25;17.67;;;;;;;19.81;87.75;101841.63;5074128;28;20583;-59
2023/10/02 09:56:16;;;;;;;26.30;18.13;;;;;;;20.08;87.52;101838.38;5073538;28;20039;-59
2023/10/02 09:59:12;;;;;;;29.67;17.55;;;;;;;20.36;86.45;101818.72;5072896;28;20089;-60
2023/10/02 10:01:38;;;;;;;26.13;17.63;;;;;;;20.68;82.62;101835.75;5061690;28;20496;-60
2023/10/02 10:04:31;;;;;;;29.13;17.42;;;;;;;20.95;81.20;101835.13;5072039;28;20099;-59
2023/10/02 10:07:09;;;;;;;27.95;17.58;;;;;;;21.18;80.25;101835.69;5072404;28;20677;-59
2023/10/02 10:09:51;;;;;;;28.33;17.85;;;;;;;21.44;77.82;101836.91;5065637;28;20025;-59
2023/10/02 10:12:21;;;;;;;28.48;17.15;;;;;;;21.55;78.47;101823.19;5064462;28;20039;-59
2023/10/02 10:14:54;;;;;;;28.15;16.90;;;;;;;21.77;76.55;101826.59;5070452;28;20475;-59
2023/10/02 10:17:21;;;;;;;26.98;16.70;;;;;;;21.84;75.82;101816.84;5073114;28;20365;-59
2023/10/02 10:22:40;;;;;;;28.63;16.95;;;;;;;22.07;74.75;101806.53;5071418;28;20046;-59
2023/10/02 10:27:55;;;;;;;27.33;16.52;;;;;;;22.38;72.96;101818.00;5075140;28;20028;-59
2023/10/02 10:30:33;;;;;;;28.23;16.98;;;;;;;22.57;72.48;101811.59;5071961;28;20052;-59
2023/10/02 10:35:34;;;;;;;29.65;16.20;;;;;;;22.64;74.13;101807.25;5083624;28;20113;-59
2023/10/02 10:38:04;;;;;;;28.52;16.17;;;;;;;22.74;71.95;101801.78;5076195;28;20028;-59
2023/10/02 10:40:44;;;;;;;25.40;15.60;;;;;;;22.86;71.99;101808.69;5070896;28;20100;-59
2023/10/02 10:43:18;;;;;;;26.33;15.80;;;;;;;22.99;72.37;101802.06;5072957;28;20070;-60
2023/10/02 10:45:48;;;;;;;23.88;14.75;;;;;;;22.81;75.17;101800.16;5072798;28;20444;-59
2023/10/02 10:48:26;;;;;;;30.55;16.65;;;;;;;22.63;74.55;101804.72;5071274;28;20150;-59
2023/10/02 10:51:01;;;;;;;27.13;16.02;;;;;;;22.47;73.10;101801.78;5072554;28;20472;-59
2023/10/02 10:53:27;;;;;;;28.15;16.00;;;;;;;22.33;73.13;101795.03;5071996;28;20032;-59
2023/10/02 10:55:56;;;;;;;25.77;15.45;;;;;;;22.15;73.50;101790.38;5072413;28;20379;-60
2023/10/02 10:58:33;;;;;;;;;;;;;;;22.47;74.36;101796.38;5072490;28;20020;-59
2023/10/02 11:01:02;;;;;;;27.20;16.58;;;;;;;22.26;77.12;101792.06;5072010;28;19912;-59
2023/10/02 11:03:30;;;;;;;26.83;16.38;;;;;;;22.41;74.46;101796.00;5072199;28;20024;-59
2023/10/02 11:06:03;;;;;;;29.25;16.95;;;;;;;22.40;74.44;101793.41;5072121;28;20047;-59
2023/10/02 11:08:30;;;;;;;30.98;17.02;;;;;;;22.63;72.61;101770.31;5071632;28;20064;-59
2023/10/02 11:11:18;;;;;;;31.02;17.30;;;;;;;22.75;73.31;101789.91;5071953;28;20041;-60
2023/10/02 11:13:50;;;;;;;29.70;16.38;;;;;;;22.49;73.88;101762.69;5070578;28;20395;-60
2023/10/02 11:16:31;;;;;;;27.98;16.52;;;;;;;22.67;73.83;101787.97;5072331;28;20024;-59
2023/10/02 11:22:21;;;;;;;27.25;16.23;;;;;;;23.96;69.10;101779.41;5038048;28;20447;-59
2023/10/02 11:24:53;;;;;;;32.30;15.60;;;;;;;24.77;67.23;101783.47;5071556;28;20096;-59
2023/10/02 11:27:19;;;;;;;22.88;15.27;;;;;;;25.22;65.01;101783.03;5072194;28;20111;-60
2023/10/02 11:30:01;;;;;;;26.77;16.20;;;;;;;25.50;62.06;101779.94;5071714;28;20020;-60
2023/10/02 11:32:45;;;;;;;25.23;16.17;;;;;;;26.12;62.27;101772.00;5071739;28;20081;-60
2023/10/02 11:35:10;;;;;;;27.10;15.52;;;;;;;26.27;59.86;101770.22;5071830;28;20095;-60
2023/10/02 11:37:45;;;;;;;22.17;14.60;;;;;;;26.60;59.79;101771.97;5070652;28;20167;-60
2023/10/02 11:40:10;;;;;;;24.63;14.20;;;;;;;27.16;56.97;101772.63;5071600;28;20078;-60
2023/10/02 11:42:40;;;;;;;22.27;14.25;;;;;;;27.34;55.97;101775.03;5070263;28;20029;-60
2023/10/02 11:45:11;;;;;;;26.25;15.52;;;;;;;27.52;56.26;101767.31;5071707;28;20025;-60
2023/10/02 11:47:37;;;;;;;22.25;14.48;;;;;;;27.62;53.05;101769.81;5071489;28;20383;-60
2023/10/02 11:50:04;;;;;;;26.27;14.65;;;;;;;27.54;54.00;101775.34;5071711;28;20028;-60
2023/10/02 11:52:31;;;;;;;25.90;14.85;;;;;;;27.46;54.20;101761.75;5070115;28;20034;-60
2023/10/02 11:54:59;;;;;;;23.55;14.40;;;;;;;27.08;55.23;101754.38;5069694;28;20050;-60
2023/10/02 11:57:24;;;;;;;23.63;13.73;;;;;;;27.01;55.73;101752.56;5071321;28;20024;-60
2023/10/02 11:59:50;;;;;;;24.95;14.38;;;;;;;26.82;56.63;101746.56;5070194;28;20024;-60
2023/10/02 12:02:19;;;;;;;24.73;14.48;;;;;;;26.58;56.92;101741.28;5069720;28;20024;-60
2023/10/02 12:04:46;;;;;;;23.08;15.07;;;;;;;26.27;58.16;101740.22;5071437;28;20033;-61
2023/10/02 12:07:16;;;;;;;22.63;14.18;;;;;;;25.93;60.78;101734.25;5070274;28;20467;-60
2023/10/02 12:09:45;;;;;;;22.67;14.05;;;;;;;25.70;61.97;101731.38;5070993;28;21314;-59
2023/10/02 12:12:11;;;;;;;22.10;13.70;;;;;;;25.49;61.16;101730.06;5070972;28;20025;-60
2023/10/02 12:14:39;;;;;;;24.92;14.75;;;;;;;25.02;62.03;101719.88;5069810;28;20475;-60
2023/10/02 12:17:05;;;;;;;24.23;14.50;;;;;;;24.88;61.71;101720.53;5071400;28;20117;-60
2023/10/02 12:19:35;;;;;;;22.92;14.60;;;;;;;24.69;62.17;101725.28;5071277;28;20091;-60
2023/10/02 12:22:05;;;;;;;21.90;13.93;;;;;;;25.00;62.41;101730.09;5069508;28;20024;-59
2023/10/02 12:24:35;;;;;;;21.33;13.80;;;;;;;25.26;63.39;101718.19;5070879;28;20475;-59
2023/10/02 12:27:01;;;;;;;26.50;14.82;;;;;;;25.26;63.36;101727.19;5072681;28;20021;-60
2023/10/02 12:29:29;;;;;;;29.10;14.65;;;;;;;25.37;61.97;101721.41;5055214;28;20037;-60
2023/10/02 12:31:55;;;;;;;24.65;15.00;;;;;;;25.37;62.27;101706.94;5056302;28;20021;-60
2023/10/02 12:34:22;;;;;;;19.95;13.73;;;;;;;25.49;60.69;101710.16;5055412;28;20025;-60
2023/10/02 12:36:53;;;;;;;23.50;14.17;;;;;;;25.50;60.91;101712.72;5070815;28;20412;-60